Time;durP1;ratioP1;P1;durP2;ratioP2;P2;SDS_P1;SDS_P2;PMS_P1;PMS_P2;Temp;Humidity;BMP_temperature;BMP_pressure;BME280_temperature;BME280_humidity;BME280_pressure;Samples;Min_cycle;Max_cycle;Signal;HPM_P1;HPM_P2
2020/12/17 12:36:05;;;;;;;;;;;6.90;99.90;;;;;;5206046;23;19975;-89
2020/12/17 12:56:30;;;;;;;;;;;7.00;99.90;;;;;;5081873;23;19933;-91
2020/12/17 13:10:29;;;;;;;;;;;7.10;99.90;;;;;;4999887;28;19948;-92
2020/12/17 13:24:56;;;;;;;;;;;7.20;99.90;;;;;;5075069;23;19926;-93
2020/12/17 13:27:23;;;;;;;;;;;7.30;99.90;;;;;;5016690;28;19926;-91
2020/12/17 13:29:50;;;;;;;;;;;7.30;99.90;;;;;;5017076;28;19925;-91
2020/12/17 13:32:16;;;;;;;;;;;7.30;99.90;;;;;;5017935;28;19932;-91
2020/12/17 14:37:25;;;;;;;;;;;7.30;99.90;;;;;;5046644;23;19926;-90
2020/12/17 14:42:58;;;;;;;;;;;7.30;99.90;;;;;;5000859;28;19979;-90
2020/12/17 14:45:24;;;;;;;;;;;7.30;99.90;;;;;;4997997;28;19926;-91
2020/12/17 14:47:55;;;;;;;;;;;7.30;99.90;;;;;;4996737;28;19926;-92
2020/12/17 14:50:24;;;;;;;;;;;7.30;99.90;;;;;;4996941;28;19992;-92
2020/12/17 15:19:17;;;;;;;;;;;7.40;99.90;;;;;;5083128;23;19984;-85
2020/12/17 15:39:37;;;;;;;;;;;7.40;99.90;;;;;;5051384;23;19925;-89
2020/12/17 15:42:04;;;;;;;;;;;7.40;99.90;;;;;;5018963;28;19925;-88
2020/12/17 15:44:32;;;;;;;;;;;7.40;99.90;;;;;;5021031;28;19929;-90
2020/12/17 15:46:58;;;;;;;;;;;7.50;99.90;;;;;;5018342;28;19925;-89
2020/12/17 15:49:24;;;;;;;;;;;7.50;99.90;;;;;;5018435;28;19979;-87
2020/12/17 15:51:52;;;;;;;;;;;7.50;99.90;;;;;;5018034;28;19925;-91
2020/12/17 15:54:18;;;;;;;;;;;7.50;99.90;;;;;;5018043;28;19925;-87
2020/12/17 16:02:56;;;;;;;;;;;7.50;99.90;;;;;;5041184;23;19930;-87
2020/12/17 16:05:24;;;;;;;;;;;7.50;99.90;;;;;;4998551;28;19925;-87
2020/12/17 16:07:51;;;;;;;;;;;7.50;99.90;;;;;;4998347;28;20255;-87
2020/12/17 16:13:34;;;;;;;;;;;7.50;99.90;;;;;;4999815;28;19981;-88
2020/12/17 16:16:01;;;;;;;;;;;7.60;99.90;;;;;;4997899;28;19934;-89
2020/12/17 16:21:40;;;;;;;;;;;7.60;99.90;;;;;;4998490;28;19993;-87
2020/12/17 16:30:13;;;;;;;;;;;7.60;99.90;;;;;;5007421;28;20029;-90
2020/12/17 16:32:42;;;;;;;;;;;7.70;99.90;;;;;;5017558;28;19964;-88
2020/12/17 16:35:09;;;;;;;;;;;7.70;99.90;;;;;;5017400;28;19933;-90
2020/12/17 16:37:38;;;;;;;;;;;7.70;99.90;;;;;;5017243;28;19925;-89
2020/12/17 16:40:05;;;;;;;;;;;7.70;99.90;;;;;;5017319;28;20000;-90
2020/12/17 16:42:33;;;;;;;;;;;7.70;99.90;;;;;;5017285;28;19952;-89
2020/12/17 16:45:00;;;;;;;;;;;7.70;99.90;;;;;;5017124;28;19926;-90
2020/12/17 16:47:28;;;;;;;;;;;7.70;99.90;;;;;;5017197;28;19925;-90
2020/12/17 16:49:55;;;;;;;;;;;7.70;99.90;;;;;;5016818;28;19929;-89
2020/12/17 16:52:23;;;;;;;;;;;7.70;99.90;;;;;;5017126;28;19930;-89
2020/12/17 16:54:50;;;;;;;;;;;7.80;99.90;;;;;;5016715;28;19926;-90
2020/12/17 16:57:16;;;;;;;;;;;7.80;99.90;;;;;;5016721;28;19925;-89
2020/12/17 16:59:44;;;;;;;;;;;7.80;99.90;;;;;;5012667;28;19926;-91
2020/12/17 17:02:10;;;;;;;;;;;7.70;99.90;;;;;;4996907;28;19937;-90
2020/12/17 17:04:38;;;;;;;;;;;7.80;99.90;;;;;;4997179;28;20358;-89
2020/12/17 17:07:06;;;;;;;;;;;7.80;99.90;;;;;;4995912;28;19992;-86
2020/12/17 17:09:33;;;;;;;;;;;7.80;99.90;;;;;;4996734;28;19932;-94
2020/12/17 17:12:00;;;;;;;;;;;7.80;99.90;;;;;;4996946;28;19925;-91
2020/12/17 17:14:27;;;;;;;;;;;7.80;99.90;;;;;;4997080;28;19992;-92
2020/12/17 17:16:54;;;;;;;;;;;7.80;99.90;;;;;;4997194;28;19926;-92
2020/12/17 17:19:20;;;;;;;;;;;7.80;99.90;;;;;;4997030;28;19926;-92
2020/12/17 17:21:49;;;;;;;;;;;7.80;99.90;;;;;;4996844;28;20362;-92
2020/12/17 17:24:16;;;;;;;;;;;7.80;99.90;;;;;;4997194;28;19985;-92
2020/12/17 17:26:46;;;;;;;;;;;7.80;99.90;;;;;;4996883;28;19937;-92
2020/12/17 17:29:13;;;;;;;;;;;7.80;99.90;;;;;;4997087;28;19992;-92
2020/12/17 17:31:39;;;;;;;;;;;7.80;99.90;;;;;;4977479;28;20350;-92
2020/12/17 17:34:06;;;;;;;;;;;7.90;99.90;;;;;;4977155;28;19926;-92
2020/12/17 17:36:32;;;;;;;;;;;7.80;99.90;;;;;;4977407;28;19926;-92
2020/12/17 17:38:58;;;;;;;;;;;7.80;99.90;;;;;;4977222;28;19926;-92
2020/12/17 17:41:25;;;;;;;;;;;7.90;99.90;;;;;;4977183;28;19969;-93
2020/12/17 17:43:51;;;;;;;;;;;7.90;99.90;;;;;;4977342;28;19926;-93
2020/12/17 17:46:18;;;;;;;;;;;7.90;99.90;;;;;;4977190;28;19926;-92
2020/12/17 17:48:45;;;;;;;;;;;7.90;99.90;;;;;;4977182;28;19941;-93
2020/12/17 17:51:12;;;;;;;;;;;7.90;99.90;;;;;;4976886;28;19934;-92
2020/12/17 17:53:38;;;;;;;;;;;7.90;99.90;;;;;;4977203;28;19926;-93
2020/12/17 17:56:07;;;;;;;;;;;7.90;99.90;;;;;;4976848;28;19930;-92
2020/12/17 17:58:34;;;;;;;;;;;7.90;99.90;;;;;;4977097;28;19941;-90
2020/12/17 18:01:00;;;;;;;;;;;7.90;99.90;;;;;;4990760;28;19932;-92
2020/12/17 18:03:27;;;;;;;;;;;7.80;99.90;;;;;;4996789;28;19958;-93
2020/12/17 18:05:54;;;;;;;;;;;7.80;99.90;;;;;;4996495;28;19988;-93
2020/12/17 18:08:20;;;;;;;;;;;7.90;99.90;;;;;;4996457;28;19925;-91
2020/12/17 18:10:46;;;;;;;;;;;7.80;99.90;;;;;;4996248;28;20377;-86
2020/12/17 18:13:13;;;;;;;;;;;7.90;99.90;;;;;;4995720;28;19937;-86
2020/12/17 18:15:39;;;;;;;;;;;7.80;99.90;;;;;;4995731;28;20244;-86
2020/12/17 18:18:05;;;;;;;;;;;7.90;99.90;;;;;;4995816;28;19937;-86
2020/12/17 18:20:32;;;;;;;;;;;7.90;99.90;;;;;;4995565;28;19936;-86
2020/12/17 18:22:59;;;;;;;;;;;7.90;99.90;;;;;;4995564;28;19926;-85
2020/12/17 18:25:25;;;;;;;;;;;7.90;99.90;;;;;;4995605;28;19930;-86
2020/12/17 18:27:51;;;;;;;;;;;8.00;99.90;;;;;;4995733;28;19926;-87
2020/12/17 18:30:18;;;;;;;;;;;7.90;99.90;;;;;;4986664;28;19937;-86
2020/12/17 18:32:44;;;;;;;;;;;8.00;99.90;;;;;;4976049;28;20370;-86
2020/12/17 18:35:10;;;;;;;;;;;8.00;99.90;;;;;;4975866;28;19946;-86
2020/12/17 18:37:37;;;;;;;;;;;8.00;99.90;;;;;;4976239;28;19926;-87
2020/12/17 18:40:04;;;;;;;;;;;8.00;99.90;;;;;;4975937;28;19993;-86
2020/12/17 18:42:31;;;;;;;;;;;8.00;99.90;;;;;;4975822;28;19930;-86
2020/12/17 18:44:57;;;;;;;;;;;8.00;99.90;;;;;;4975923;28;19926;-86
2020/12/17 18:47:23;;;;;;;;;;;8.00;99.90;;;;;;4979269;28;20025;-86
2020/12/17 18:49:52;;;;;;;;;;;8.00;99.90;;;;;;4980065;28;20398;-86
2020/12/17 18:52:18;;;;;;;;;;;8.00;99.90;;;;;;4979646;28;19926;-86
2020/12/17 18:54:45;;;;;;;;;;;8.10;99.90;;;;;;4980045;28;19930;-86
2020/12/17 18:57:11;;;;;;;;;;;8.00;99.90;;;;;;4979730;28;19930;-87
2020/12/17 18:59:38;;;;;;;;;;;8.00;99.90;;;;;;4979596;28;19930;-87
2020/12/17 19:02:04;;;;;;;;;;;8.10;99.90;;;;;;4989627;28;19984;-86
2020/12/17 19:04:30;;;;;;;;;;;8.10;99.90;;;;;;4999022;28;19937;-87
2020/12/17 19:06:57;;;;;;;;;;;8.10;99.90;;;;;;4998831;28;19988;-86
2020/12/17 19:09:23;;;;;;;;;;;8.10;99.90;;;;;;4999152;28;19936;-87
2020/12/17 19:11:50;;;;;;;;;;;8.10;99.90;;;;;;4998935;28;20303;-86
2020/12/17 19:14:17;;;;;;;;;;;8.10;99.90;;;;;;4998794;28;19958;-85
2020/12/17 19:16:43;;;;;;;;;;;8.10;99.90;;;;;;4998746;28;19991;-85
2020/12/17 19:19:09;;;;;;;;;;;8.10;99.90;;;;;;4998673;28;20425;-84
2020/12/17 19:21:36;;;;;;;;;;;8.10;99.90;;;;;;4998831;28;19926;-84
2020/12/17 19:24:02;;;;;;;;;;;8.10;99.90;;;;;;4998849;28;19925;-85
2020/12/17 19:26:35;;;;;;;;;;;8.10;99.90;;;;;;4998756;28;19934;-84
2020/12/17 19:29:02;;;;;;;;;;;8.10;99.90;;;;;;4998573;28;19933;-84
2020/12/17 19:31:30;;;;;;;;;;;8.10;99.90;;;;;;4998135;28;20364;-85
2020/12/17 19:33:56;;;;;;;;;;;8.10;99.90;;;;;;4998715;28;19937;-85
2020/12/17 19:36:23;;;;;;;;;;;8.10;99.90;;;;;;4998626;28;19925;-84
2020/12/17 19:38:49;;;;;;;;;;;8.10;99.90;;;;;;4998341;28;19933;-83
2020/12/17 19:41:18;;;;;;;;;;;8.10;99.90;;;;;;4998374;28;20011;-84
2020/12/17 19:43:44;;;;;;;;;;;8.10;99.90;;;;;;4998326;28;19929;-85
2020/12/17 19:46:12;;;;;;;;;;;8.20;99.90;;;;;;4998253;28;20322;-85
2020/12/17 19:48:38;;;;;;;;;;;8.20;99.90;;;;;;4998377;28;19926;-85
2020/12/17 19:51:04;;;;;;;;;;;8.10;99.90;;;;;;4997992;28;19925;-86
2020/12/17 19:53:30;;;;;;;;;;;8.10;99.90;;;;;;4998229;28;19936;-86
2020/12/17 19:55:57;;;;;;;;;;;8.20;99.90;;;;;;4998146;28;19997;-84
2020/12/17 19:58:23;;;;;;;;;;;8.20;99.90;;;;;;4996928;28;20270;-85
2020/12/17 20:00:49;;;;;;;;;;;8.20;99.90;;;;;;4997598;28;19984;-85
2020/12/17 20:03:17;;;;;;;;;;;8.20;99.90;;;;;;4997885;28;19932;-86
2020/12/17 20:05:43;;;;;;;;;;;8.20;99.90;;;;;;4998005;28;19926;-86
2020/12/17 20:08:10;;;;;;;;;;;8.20;99.90;;;;;;4997747;28;19926;-86
2020/12/17 20:10:42;;;;;;;;;;;8.20;99.90;;;;;;4997756;28;19984;-86
2020/12/17 20:13:08;;;;;;;;;;;8.30;99.90;;;;;;4998144;28;19933;-85
2020/12/17 20:15:37;;;;;;;;;;;8.30;99.90;;;;;;4997591;28;19993;-86
2020/12/17 20:18:05;;;;;;;;;;;8.30;99.90;;;;;;4997841;28;19937;-86
2020/12/17 20:20:32;;;;;;;;;;;8.30;99.90;;;;;;4997620;28;19926;-86
2020/12/17 20:22:58;;;;;;;;;;;8.30;99.90;;;;;;4997638;28;20394;-85
2020/12/17 20:25:24;;;;;;;;;;;8.30;99.90;;;;;;4997963;28;19936;-86
2020/12/17 20:27:52;;;;;;;;;;;8.40;99.90;;;;;;4997342;28;20278;-86
2020/12/17 20:30:18;;;;;;;;;;;8.40;99.90;;;;;;4997565;28;19934;-85
2020/12/17 20:32:44;;;;;;;;;;;8.40;99.90;;;;;;4997360;28;20487;-85
2020/12/17 20:35:11;;;;;;;;;;;8.40;99.90;;;;;;4997446;28;19926;-86
2020/12/17 20:37:38;;;;;;;;;;;8.40;99.90;;;;;;4997428;28;19926;-85
2020/12/17 20:40:04;;;;;;;;;;;8.40;99.90;;;;;;4997352;28;19941;-85
2020/12/17 20:42:31;;;;;;;;;;;8.40;99.90;;;;;;4997497;28;19926;-86
2020/12/17 20:44:57;;;;;;;;;;;8.40;99.90;;;;;;4997222;28;19953;-86
2020/12/17 20:47:23;;;;;;;;;;;8.40;99.90;;;;;;4997163;28;19945;-86
2020/12/17 20:49:50;;;;;;;;;;;8.40;99.90;;;;;;4996979;28;19926;-85
2020/12/17 20:52:16;;;;;;;;;;;8.40;99.90;;;;;;4997041;28;19926;-86
2020/12/17 20:54:43;;;;;;;;;;;8.50;99.90;;;;;;4996986;28;19926;-86
2020/12/17 20:57:10;;;;;;;;;;;8.50;99.90;;;;;;4997110;28;19933;-86
2020/12/17 20:59:36;;;;;;;;;;;8.50;99.90;;;;;;4996916;28;19926;-86
2020/12/17 21:02:02;;;;;;;;;;;8.50;99.90;;;;;;4996669;28;19925;-86
2020/12/17 21:04:28;;;;;;;;;;;8.60;99.90;;;;;;4996897;28;19926;-86
2020/12/17 21:06:55;;;;;;;;;;;8.60;99.90;;;;;;4996926;28;19940;-86
2020/12/17 21:09:21;;;;;;;;;;;8.60;99.90;;;;;;4996190;28;20330;-88
2020/12/17 21:11:48;;;;;;;;;;;8.70;99.90;;;;;;4996546;28;19985;-88
2020/12/17 21:14:15;;;;;;;;;;;8.60;99.90;;;;;;4996538;28;19930;-83
2020/12/17 21:16:41;;;;;;;;;;;8.80;99.90;;;;;;4996737;28;19926;-84
2020/12/17 21:19:18;;;;;;;;;;;8.70;99.90;;;;;;4996448;28;19936;-86
2020/12/17 21:21:47;;;;;;;;;;;8.70;99.90;;;;;;4996565;28;20414;-87
2020/12/17 21:24:16;;;;;;;;;;;8.70;99.90;;;;;;4995370;28;19969;-86
2020/12/17 21:26:46;;;;;;;;;;;8.70;99.90;;;;;;4995663;28;19925;-87
2020/12/17 21:29:27;;;;;;;;;;;8.70;99.90;;;;;;4996060;28;20282;-86
2020/12/17 21:31:54;;;;;;;;;;;8.90;99.90;;;;;;4994282;28;20343;-88
2020/12/17 21:34:22;;;;;;;;;;;8.90;99.90;;;;;;4995575;28;19992;-85
2020/12/17 21:36:57;;;;;;;;;;;8.80;99.90;;;;;;4995805;28;19925;-86
2020/12/17 21:39:27;;;;;;;;;;;9.00;99.90;;;;;;4995742;28;19936;-88
2020/12/17 21:41:55;;;;;;;;;;;9.00;99.90;;;;;;4995656;28;20385;-87
2020/12/17 21:44:24;;;;;;;;;;;8.80;99.90;;;;;;4995763;28;19936;-86
2020/12/17 21:46:51;;;;;;;;;;;8.80;99.90;;;;;;4995609;28;19926;-87
2020/12/17 21:49:18;;;;;;;;;;;8.80;99.90;;;;;;4995547;28;19958;-85
2020/12/17 21:51:49;;;;;;;;;;;9.10;99.90;;;;;;4992940;28;20424;-83
2020/12/17 21:54:17;;;;;;;;;;;8.80;99.90;;;;;;4995503;28;19945;-90
2020/12/17 21:56:43;;;;;;;;;;;8.90;99.90;;;;;;4995866;28;19926;-86
2020/12/17 21:59:10;;;;;;;;;;;8.80;99.90;;;;;;4995383;28;19926;-86
2020/12/17 22:01:43;;;;;;;;;;;8.80;99.90;;;;;;4995110;28;19926;-81
2020/12/17 22:04:11;;;;;;;;;;;8.80;99.90;;;;;;4994988;28;20346;-85
2020/12/17 22:06:38;;;;;;;;;;;9.20;99.90;;;;;;4995834;28;19925;-86
2020/12/17 22:09:06;;;;;;;;;;;8.90;99.90;;;;;;4995696;28;19933;-88
2020/12/17 22:11:34;;;;;;;;;;;9.20;99.90;;;;;;4995774;28;19932;-86
2020/12/17 22:14:00;;;;;;;;;;;9.00;99.90;;;;;;4995665;28;19926;-87
2020/12/17 22:16:30;;;;;;;;;;;8.90;99.90;;;;;;4995324;28;20397;-87
2020/12/17 22:19:01;;;;;;;;;;;8.90;99.90;;;;;;4995155;28;20008;-86
2020/12/17 22:21:28;;;;;;;;;;;9.30;99.90;;;;;;4994807;28;19976;-87
2020/12/17 22:23:56;;;;;;;;;;;9.00;99.90;;;;;;4995370;28;19926;-86
2020/12/17 22:26:23;;;;;;;;;;;8.90;99.90;;;;;;4995669;28;19956;-86
2020/12/17 22:28:52;;;;;;;;;;;8.90;99.90;;;;;;4995602;28;20347;-87
2020/12/17 22:31:24;;;;;;;;;;;8.90;99.90;;;;;;4995251;28;19960;-86
2020/12/17 22:33:52;;;;;;;;;;;8.90;99.90;;;;;;4995520;28;19933;-84
2020/12/17 22:36:19;;;;;;;;;;;8.90;99.90;;;;;;4995690;28;19937;-85
2020/12/17 22:38:45;;;;;;;;;;;9.00;99.90;;;;;;4995713;28;20345;-86
2020/12/17 22:41:11;;;;;;;;;;;9.00;99.90;;;;;;4994981;28;19926;-85
2020/12/17 22:43:38;;;;;;;;;;;8.90;99.90;;;;;;4995198;28;19957;-85
2020/12/17 22:46:04;;;;;;;;;;;8.90;99.90;;;;;;4995629;28;19929;-85
2020/12/17 22:48:30;;;;;;;;;;;9.00;99.90;;;;;;4995081;28;19926;-85
2020/12/17 22:50:57;;;;;;;;;;;9.00;99.90;;;;;;4995451;28;19926;-84
2020/12/17 22:53:24;;;;;;;;;;;9.00;99.90;;;;;;4995632;28;20255;-83
2020/12/17 22:55:50;;;;;;;;;;;9.00;99.90;;;;;;4995712;28;19926;-85
2020/12/17 22:58:16;;;;;;;;;;;9.00;99.90;;;;;;4995413;28;19925;-84
2020/12/17 23:00:44;;;;;;;;;;;9.00;99.90;;;;;;4995317;28;19940;-83
2020/12/17 23:03:10;;;;;;;;;;;9.00;99.90;;;;;;4995463;28;20008;-82
2020/12/17 23:05:36;;;;;;;;;;;9.00;99.90;;;;;;4995823;28;19933;-82
2020/12/17 23:08:02;;;;;;;;;;;9.00;99.90;;;;;;4995278;28;19926;-83
2020/12/17 23:10:30;;;;;;;;;;;9.00;99.90;;;;;;4995025;28;20046;-83
2020/12/17 23:12:56;;;;;;;;;;;9.10;99.90;;;;;;4995231;28;19930;-81
2020/12/17 23:15:22;;;;;;;;;;;9.10;99.90;;;;;;4995158;28;19937;-80
2020/12/17 23:17:48;;;;;;;;;;;9.10;99.90;;;;;;4995346;28;20274;-79
2020/12/17 23:20:15;;;;;;;;;;;9.10;99.90;;;;;;4995284;28;19929;-79
2020/12/17 23:22:41;;;;;;;;;;;9.10;99.90;;;;;;4995235;28;19961;-79
2020/12/17 23:25:07;;;;;;;;;;;9.10;99.90;;;;;;4995012;28;19980;-78
2020/12/17 23:27:35;;;;;;;;;;;9.10;99.90;;;;;;4995051;28;19936;-78
2020/12/17 23:30:01;;;;;;;;;;;9.10;99.90;;;;;;4994851;28;19936;-78
2020/12/17 23:32:27;;;;;;;;;;;9.10;99.90;;;;;;4996732;28;20350;-79
2020/12/17 23:34:54;;;;;;;;;;;9.10;99.90;;;;;;4998660;28;19925;-79
2020/12/17 23:37:20;;;;;;;;;;;9.10;99.90;;;;;;4998456;28;19929;-79
2020/12/17 23:39:46;;;;;;;;;;;9.10;99.90;;;;;;4998426;28;19937;-80
2020/12/17 23:42:12;;;;;;;;;;;9.20;99.90;;;;;;4998346;28;19926;-78
2020/12/17 23:44:40;;;;;;;;;;;9.10;99.90;;;;;;4998392;28;20004;-79
2020/12/17 23:47:06;;;;;;;;;;;9.20;99.90;;;;;;4998551;28;20310;-78
2020/12/17 23:49:32;;;;;;;;;;;9.20;99.90;;;;;;4998355;28;19945;-78
2020/12/17 23:51:58;;;;;;;;;;;9.10;99.90;;;;;;4998132;28;19934;-78
2020/12/17 23:54:25;;;;;;;;;;;9.20;99.90;;;;;;4998241;28;19945;-79
2020/12/17 23:56:51;;;;;;;;;;;9.20;99.90;;;;;;4998010;28;19937;-79
2020/12/17 23:59:17;;;;;;;;;;;9.20;99.90;;;;;;4997830;28;20322;-80
